Time;durP1;ratioP1;P1;durP2;ratioP2;P2;SDS_P1;SDS_P2;PMS_P1;PMS_P2;Temp;Humidity;BMP_temperature;BMP_pressure;BME280_temperature;BME280_humidity;BME280_pressure;Samples;Min_cycle;Max_cycle;Signal;HPM_P1;HPM_P2
2022/10/18 00:01:49;;;;;;;14.00;9.43;;;;;;;9.88;56.55;96162.56;4163093;28;20687;-56
2022/10/18 00:03:51;;;;;;;13.82;9.90;;;;;;;9.84;56.55;96156.72;4164296;28;20145;-56
2022/10/18 00:05:53;;;;;;;14.57;9.20;;;;;;;9.83;56.41;96157.69;4163555;28;20056;-59
2022/10/18 00:07:54;;;;;;;15.25;9.52;;;;;;;9.77;56.43;96158.16;4164699;28;20108;-58
2022/10/18 00:09:56;;;;;;;13.75;9.90;;;;;;;9.75;56.84;96156.63;4163232;28;20141;-58
2022/10/18 00:11:58;;;;;;;16.52;10.40;;;;;;;9.75;57.18;96154.81;4159307;28;20598;-58
2022/10/18 00:14:00;;;;;;;16.35;9.20;;;;;;;9.76;56.50;96146.00;4163985;28;20127;-58
2022/10/18 00:16:03;;;;;;;15.27;9.80;;;;;;;9.79;56.83;96145.78;4162939;28;20164;-58
2022/10/18 00:18:05;;;;;;;14.25;8.95;;;;;;;9.80;56.85;96142.19;4164547;28;20140;-59
2022/10/18 00:20:07;;;;;;;13.88;9.77;;;;;;;9.80;56.20;96141.38;4163869;28;20470;-56
2022/10/18 00:22:09;;;;;;;15.20;9.45;;;;;;;9.77;56.66;96137.22;4162109;28;20045;-58
2022/10/18 00:24:11;;;;;;;14.07;9.27;;;;;;;9.78;56.27;96136.25;4163277;28;20050;-58
2022/10/18 00:26:18;;;;;;;17.52;9.82;;;;;;;9.83;56.43;96133.31;4163075;28;20045;-53
2022/10/18 00:28:19;;;;;;;16.00;8.85;;;;;;;9.84;56.12;96121.88;4163202;28;20665;-56
2022/10/18 00:30:21;;;;;;;12.40;8.88;;;;;;;9.78;56.29;96127.56;4161812;28;20486;-56
2022/10/18 00:32:24;;;;;;;15.15;9.55;;;;;;;9.74;56.29;96126.97;4163145;28;20053;-56
2022/10/18 00:34:25;;;;;;;19.13;9.55;;;;;;;9.73;56.40;96120.09;4163380;28;20553;-58
2022/10/18 00:36:29;;;;;;;10.95;8.38;;;;;;;9.74;56.33;96126.97;4160758;28;20053;-56
2022/10/18 00:38:31;;;;;;;;;;;;;;;9.72;56.32;96118.44;4163245;28;20564;-63
2022/10/18 00:40:33;;;;;;;11.80;9.20;;;;;;;9.74;56.29;96124.34;4162332;28;20023;-64
2022/10/18 00:42:36;;;;;;;13.85;10.07;;;;;;;9.74;56.40;96120.91;4150024;28;20133;-63
2022/10/18 00:44:37;;;;;;;13.32;8.90;;;;;;;9.63;56.95;96119.94;4163155;28;20498;-63
2022/10/18 00:46:41;;;;;;;13.57;9.50;;;;;;;9.55;57.73;96116.25;4160398;28;20049;-64
2022/10/18 00:48:43;;;;;;;13.25;9.35;;;;;;;9.43;57.57;96115.44;4163177;28;20140;-65
2022/10/18 00:50:46;;;;;;;12.75;9.13;;;;;;;9.08;58.32;96113.72;4163019;28;20444;-64
2022/10/18 00:52:52;;;;;;;18.80;9.18;;;;;;;9.06;59.13;96110.38;4161501;28;20077;-64
2022/10/18 00:54:54;;;;;;;13.40;9.32;;;;;;;9.05;58.57;96110.50;4163018;28;20092;-64
2022/10/18 00:56:56;;;;;;;15.57;9.40;;;;;;;9.08;58.83;96112.84;4161150;28;20092;-62
2022/10/18 00:58:58;;;;;;;13.77;9.38;;;;;;;9.13;58.92;96115.97;4162951;28;20120;-62
2022/10/18 01:01:00;;;;;;;13.93;9.68;;;;;;;9.21;58.59;96103.16;4159918;28;20161;-63
2022/10/18 01:03:02;;;;;;;12.13;8.98;;;;;;;9.26;58.55;96106.25;4163084;28;20129;-63
2022/10/18 01:05:04;;;;;;;14.82;8.88;;;;;;;9.29;58.36;96106.03;4160770;28;20042;-64
2022/10/18 01:07:24;;;;;;;13.27;9.40;;;;;;;9.33;58.22;96104.00;4162974;28;20054;-62
2022/10/18 01:09:38;;;;;;;13.43;8.32;;;;;;;9.33;57.94;96102.22;4162757;28;20091;-63
2022/10/18 01:12:17;;;;;;;14.27;8.73;;;;;;;9.32;57.49;96094.50;4155506;28;20055;-63
2022/10/18 01:14:50;;;;;;;15.10;9.05;;;;;;;9.34;58.09;96098.66;4161070;28;20124;-66
2022/10/18 01:17:32;;;;;;;10.90;8.07;;;;;;;9.31;57.86;96093.66;4161263;28;20057;-63
2022/10/18 01:22:21;;;;;;;13.25;8.48;;;;;;;9.24;58.21;96092.47;4237594;27;20112;-62
2022/10/18 01:24:49;;;;;;;13.55;8.30;;;;;;;9.29;58.06;96090.34;4200483;28;20082;-60
2022/10/18 01:27:24;;;;;;;12.15;8.60;;;;;;;9.33;57.35;96090.94;4209084;28;20093;-63
2022/10/18 01:29:46;;;;;;;11.25;8.05;;;;;;;9.35;58.00;96087.22;4193285;28;20071;-63
2022/10/18 01:31:56;;;;;;;11.10;8.00;;;;;;;9.32;57.49;96087.47;4190689;28;20132;-66
2022/10/18 01:34:03;;;;;;;11.70;8.10;;;;;;;9.32;57.67;96084.88;4178312;28;20045;-63
2022/10/18 01:36:06;;;;;;;13.13;8.27;;;;;;;9.31;58.35;96085.81;4206820;28;20048;-64
2022/10/18 01:38:11;;;;;;;11.40;8.20;;;;;;;9.35;57.89;96087.22;4206176;28;20040;-61
2022/10/18 01:40:17;;;;;;;13.30;8.45;;;;;;;9.34;57.51;96082.16;4206589;28;20098;-65
2022/10/18 01:42:20;;;;;;;12.57;8.02;;;;;;;9.36;57.53;96082.88;4240548;27;20049;-64
2022/10/18 01:44:24;;;;;;;13.43;8.27;;;;;;;9.34;57.85;96087.38;4209529;28;20457;-64
2022/10/18 01:46:27;;;;;;;13.63;7.78;;;;;;;9.23;57.51;96085.56;4239674;27;20047;-65
2022/10/18 01:48:28;;;;;;;11.27;8.25;;;;;;;9.22;58.30;96079.50;4208929;28;20191;-63
2022/10/18 01:50:32;;;;;;;12.48;8.90;;;;;;;9.23;57.94;96077.75;4207065;28;20052;-65
2022/10/18 01:52:34;;;;;;;11.00;8.25;;;;;;;9.22;57.66;96079.50;4195167;28;20063;-64
2022/10/18 01:54:38;;;;;;;12.65;8.82;;;;;;;9.27;58.46;96078.31;4192954;28;20048;-63
2022/10/18 01:56:57;;;;;;;13.18;8.23;;;;;;;9.28;59.12;96078.22;4199475;28;20048;-63
2022/10/18 01:59:06;;;;;;;11.45;9.02;;;;;;;9.23;57.91;96080.34;4228859;28;20087;-61
2022/10/18 02:01:24;;;;;;;15.50;8.93;;;;;;;9.18;57.90;96074.63;4194118;28;20037;-62
2022/10/18 02:03:27;;;;;;;12.52;8.65;;;;;;;9.12;58.75;96072.47;4205039;28;20110;-62
2022/10/18 02:05:37;;;;;;;11.65;8.60;;;;;;;9.08;58.77;96074.50;4206104;28;20437;-59
2022/10/18 02:08:04;;;;;;;14.02;8.30;;;;;;;9.08;58.27;96071.03;4190576;28;20084;-59
2022/10/18 02:10:46;;;;;;;12.00;8.27;;;;;;;9.10;58.36;96063.91;4199772;28;20063;-64
2022/10/18 02:12:49;;;;;;;12.75;8.15;;;;;;;9.09;58.55;96064.88;4193970;28;20045;-62
2022/10/18 02:14:51;;;;;;;13.27;8.27;;;;;;;9.08;58.34;96071.03;4195059;28;20051;-63
2022/10/18 02:16:56;;;;;;;15.07;8.20;;;;;;;9.06;57.92;96070.34;4205724;28;20048;-66
2022/10/18 02:19:01;;;;;;;13.25;8.65;;;;;;;9.08;57.92;96065.81;4205931;28;20139;-63
2022/10/18 02:21:04;;;;;;;14.65;8.35;;;;;;;9.05;57.45;96058.19;4204942;28;20145;-62
2022/10/18 02:23:06;;;;;;;;;;;;;;;9.05;57.58;96066.03;4239705;27;20117;-63
2022/10/18 02:25:13;;;;;;;15.52;9.15;;;;;;;8.98;57.31;96063.06;4206580;28;19952;-63
2022/10/18 02:27:15;;;;;;;11.30;8.52;;;;;;;8.95;58.43;96061.53;4206565;28;20083;-64
2022/10/18 02:29:16;;;;;;;12.68;8.00;;;;;;;8.96;58.96;96060.56;4205992;28;20056;-63
2022/10/18 02:31:25;;;;;;;12.48;8.15;;;;;;;8.96;58.94;96052.72;4203400;28;20048;-61
2022/10/18 02:33:34;;;;;;;14.68;8.82;;;;;;;8.93;58.88;96055.56;4185194;28;20133;-63
2022/10/18 02:35:39;;;;;;;13.25;8.90;;;;;;;8.82;59.66;96064.22;4179413;28;20048;-56
2022/10/18 02:37:41;;;;;;;18.10;9.38;;;;;;;8.66;59.53;96065.47;4182948;28;20055;-56
2022/10/18 02:39:46;;;;;;;14.30;9.18;;;;;;;8.52;60.47;96064.72;4191618;28;20118;-57
2022/10/18 02:41:48;;;;;;;19.25;9.98;;;;;;;8.54;59.87;96068.06;4194061;28;20055;-58
2022/10/18 02:43:49;;;;;;;13.40;8.95;;;;;;;8.56;59.73;96073.13;4196595;28;20135;-57
2022/10/18 02:45:51;;;;;;;16.40;9.45;;;;;;;8.61;59.75;96078.88;4190084;28;20546;-57
2022/10/18 02:47:53;;;;;;;14.75;9.45;;;;;;;8.61;59.63;96071.03;4194700;28;20056;-59
2022/10/18 02:49:55;;;;;;;13.32;8.77;;;;;;;8.63;59.87;96070.94;4194527;28;20051;-58
2022/10/18 02:51:56;;;;;;;14.35;8.40;;;;;;;8.64;59.54;96073.41;4196674;28;20546;-55
2022/10/18 02:53:58;;;;;;;12.23;8.35;;;;;;;8.68;58.92;96068.81;4196183;28;20087;-56
2022/10/18 02:55:59;;;;;;;11.68;8.52;;;;;;;8.67;58.90;96069.75;4192348;28;20625;-56
2022/10/18 02:58:01;;;;;;;13.05;8.75;;;;;;;8.67;58.96;96073.22;4194015;28;20072;-56
2022/10/18 03:00:04;;;;;;;15.27;8.77;;;;;;;8.67;58.74;96069.75;4193970;28;20053;-59
2022/10/18 03:02:05;;;;;;;15.48;8.77;;;;;;;8.63;58.83;96068.31;4192968;28;20522;-55
2022/10/18 03:04:07;;;;;;;16.15;8.70;;;;;;;8.59;59.19;96072.94;4195002;28;20129;-60
2022/10/18 03:06:09;;;;;;;14.68;8.98;;;;;;;8.58;58.62;96064.28;4194716;28;20044;-58
2022/10/18 03:08:10;;;;;;;17.05;9.63;;;;;;;8.58;59.12;96069.50;4195091;28;20079;-58
2022/10/18 03:10:12;;;;;;;17.80;8.25;;;;;;;8.56;58.98;96071.38;4195403;28;20132;-61
2022/10/18 03:12:14;;;;;;;13.10;8.18;;;;;;;8.59;59.18;96071.16;4194247;28;20119;-58
2022/10/18 03:14:15;;;;;;;17.45;8.60;;;;;;;8.63;58.43;96065.72;4181894;28;20049;-59
2022/10/18 03:16:17;;;;;;;12.32;8.82;;;;;;;8.65;58.68;96067.25;4177294;28;20049;-58
2022/10/18 03:18:19;;;;;;;11.57;8.32;;;;;;;8.67;58.26;96067.97;4180788;28;20041;-56
2022/10/18 03:20:20;;;;;;;14.15;8.15;;;;;;;8.67;58.56;96061.91;4190855;28;20088;-60
2022/10/18 03:22:24;;;;;;;12.65;8.60;;;;;;;8.68;58.51;96061.78;4195111;28;20053;-57
2022/10/18 03:24:26;;;;;;;10.68;8.00;;;;;;;8.68;58.69;96060.97;4194716;28;20135;-58
2022/10/18 03:26:28;;;;;;;14.20;8.35;;;;;;;8.70;58.39;96061.69;4194677;28;20052;-59
2022/10/18 03:28:30;;;;;;;13.63;8.60;;;;;;;8.71;58.39;96061.59;4196647;28;20717;-58
2022/10/18 03:30:31;;;;;;;12.25;8.27;;;;;;;8.71;58.11;96066.81;4190900;28;20175;-57
2022/10/18 03:32:33;;;;;;;12.82;8.20;;;;;;;8.66;58.12;96062.84;4180762;28;20128;-62
2022/10/18 03:34:35;;;;;;;15.98;9.18;;;;;;;8.65;58.20;96069.00;4179889;28;20057;-59
2022/10/18 03:36:38;;;;;;;11.57;8.02;;;;;;;8.60;58.24;96059.78;4189404;28;20595;-58
2022/10/18 03:38:41;;;;;;;14.27;7.82;;;;;;;8.50;58.13;96057.94;4182214;28;20132;-59
2022/10/18 03:40:42;;;;;;;16.45;8.75;;;;;;;8.44;58.38;96059.22;4194394;28;20068;-57
2022/10/18 03:42:44;;;;;;;16.92;8.27;;;;;;;8.39;59.16;96061.31;4194845;28;20044;-58
2022/10/18 03:44:45;;;;;;;20.60;9.77;;;;;;;8.37;59.10;96071.03;4189372;28;20048;-59
2022/10/18 03:46:47;;;;;;;15.10;8.57;;;;;;;8.35;59.44;96075.53;4189667;28;20072;-60
2022/10/18 03:48:49;;;;;;;17.55;9.23;;;;;;;8.36;59.91;96074.56;4182184;28;20053;-60
2022/10/18 03:50:50;;;;;;;16.98;9.27;;;;;;;8.38;60.06;96078.75;4189783;28;20087;-57
2022/10/18 03:52:53;;;;;;;17.20;8.77;;;;;;;8.44;60.41;96074.06;4194247;28;20052;-60
2022/10/18 03:54:54;;;;;;;14.32;8.82;;;;;;;8.46;59.82;96077.41;4186497;28;20049;-56
2022/10/18 03:56:56;;;;;;;18.05;8.95;;;;;;;8.48;59.44;96072.91;4187304;28;20132;-59
2022/10/18 03:58:58;;;;;;;17.00;9.45;;;;;;;8.47;59.14;96081.66;4185387;28;20513;-55
2022/10/18 04:00:59;;;;;;;15.55;8.32;;;;;;;8.39;58.70;96080.41;4185357;28;20072;-57
2022/10/18 04:03:01;;;;;;;16.15;8.77;;;;;;;8.37;60.09;96073.66;4195658;28;20044;-58
2022/10/18 04:05:03;;;;;;;18.38;8.77;;;;;;;8.38;60.14;96072.69;4186297;28;20048;-60
2022/10/18 04:07:05;;;;;;;18.00;10.00;;;;;;;8.40;59.25;96073.41;4189934;28;20467;-61
2022/10/18 04:09:25;;;;;;;12.43;9.15;;;;;;;8.40;59.37;96076.88;4193255;28;20076;-66
2022/10/18 04:11:27;;;;;;;17.80;9.10;;;;;;;8.38;59.93;96075.31;4193351;28;20080;-63
2022/10/18 04:13:29;;;;;;;18.08;9.15;;;;;;;8.37;60.13;96077.09;4190666;28;20052;-63
2022/10/18 04:15:30;;;;;;;15.93;9.15;;;;;;;8.44;60.13;96072.28;4177603;28;20463;-63
2022/10/18 04:17:32;;;;;;;15.30;9.32;;;;;;;8.45;59.29;96068.72;4188151;28;20048;-63
2022/10/18 04:19:34;;;;;;;14.48;8.75;;;;;;;8.45;59.43;96071.31;4189413;28;20056;-62
2022/10/18 04:21:36;;;;;;;16.05;9.10;;;;;;;8.45;59.93;96071.31;4187524;28;20049;-61
2022/10/18 04:23:38;;;;;;;14.43;9.20;;;;;;;8.48;59.23;96067.69;4186035;28;20138;-64
2022/10/18 04:25:40;;;;;;;18.80;9.90;;;;;;;8.45;59.46;96073.94;4177630;28;20127;-64
2022/10/18 04:27:41;;;;;;;18.45;9.70;;;;;;;8.46;59.48;96073.00;4184734;28;20091;-65
2022/10/18 04:29:43;;;;;;;14.25;9.57;;;;;;;8.48;59.99;96070.28;4190306;28;20529;-66
2022/10/18 04:31:45;;;;;;;17.45;9.48;;;;;;;8.43;59.53;96069.78;4188645;28;20040;-64
2022/10/18 04:33:46;;;;;;;20.65;9.95;;;;;;;8.46;59.21;96069.56;4192647;28;20082;-63
2022/10/18 04:35:50;;;;;;;17.48;10.60;;;;;;;8.48;59.23;96071.09;4186589;28;20041;-66
2022/10/18 04:37:52;;;;;;;14.45;10.15;;;;;;;8.44;59.22;96069.66;4182195;28;20131;-64
2022/10/18 04:39:54;;;;;;;19.55;11.80;;;;;;;8.40;61.00;96071.66;4189462;28;20139;-63
2022/10/18 04:41:55;;;;;;;22.13;11.77;;;;;;;8.39;60.13;96069.97;4192237;28;20055;-62
2022/10/18 04:43:57;;;;;;;19.40;15.65;;;;;;;8.42;60.27;96073.34;4184548;28;20048;-63
2022/10/18 04:45:59;;;;;;;20.08;15.70;;;;;;;8.42;59.96;96074.16;4182775;28;20516;-64
2022/10/18 04:48:01;;;;;;;19.90;16.55;;;;;;;8.43;59.89;96060.16;4186360;28;20070;-64
2022/10/18 04:50:04;;;;;;;25.13;12.80;;;;;;;8.43;60.20;96065.38;4187663;28;20123;-65
2022/10/18 04:52:06;;;;;;;20.80;12.23;;;;;;;8.44;59.47;96066.22;4183372;28;20041;-64
2022/10/18 04:54:07;;;;;;;17.33;11.88;;;;;;;8.39;59.29;96058.69;4184624;28;20045;-63
2022/10/18 04:56:09;;;;;;;22.90;11.20;;;;;;;8.37;60.19;96055.38;4189255;28;20051;-63
2022/10/18 04:58:11;;;;;;;18.88;10.45;;;;;;;8.40;60.22;96055.13;4186263;28;20080;-63
2022/10/18 05:00:13;;;;;;;22.55;9.95;;;;;;;8.38;60.06;96051.78;4181677;28;20080;-62
2022/10/18 05:02:15;;;;;;;20.08;11.38;;;;;;;8.36;60.62;96058.91;4182730;28;20556;-62
2022/10/18 05:04:16;;;;;;;25.85;12.02;;;;;;;8.36;60.54;96051.06;4184555;28;20123;-63
2022/10/18 05:06:19;;;;;;;34.08;13.73;;;;;;;8.17;59.74;96049.81;4186767;28;20056;-66
2022/10/18 05:08:20;;;;;;;34.10;12.93;;;;;;;8.04;60.73;96048.19;4202328;28;20048;-63
2022/10/18 05:10:22;;;;;;;28.90;12.70;;;;;;;7.88;60.87;96053.69;4182901;28;20057;-63
2022/10/18 05:12:24;;;;;;;28.75;12.68;;;;;;;7.05;62.57;96060.25;4188746;28;20313;-63
2022/10/18 05:14:25;;;;;;;27.27;11.70;;;;;;;6.66;64.34;96059.38;4186399;28;20131;-63
2022/10/18 05:16:27;;;;;;;23.02;11.95;;;;;;;6.26;65.07;96058.56;4187510;28;20056;-65
2022/10/18 05:18:29;;;;;;;25.33;12.52;;;;;;;6.16;65.94;96058.31;4183846;28;20140;-63
2022/10/18 05:20:30;;;;;;;25.73;11.30;;;;;;;6.16;66.10;96060.94;4179914;28;20088;-62
2022/10/18 05:22:32;;;;;;;24.17;12.40;;;;;;;6.21;66.39;96058.03;4189534;28;20485;-62
2022/10/18 05:24:34;;;;;;;25.35;11.82;;;;;;;6.37;65.31;96053.50;4182944;28;20151;-64
2022/10/18 05:26:36;;;;;;;21.52;12.18;;;;;;;6.44;65.09;96062.56;4183551;28;20130;-65
2022/10/18 05:28:37;;;;;;;21.95;12.10;;;;;;;6.43;64.88;96060.91;4183317;28;20140;-64
2022/10/18 05:30:41;;;;;;;;;;;;;;;6.65;64.53;96072.53;4184829;28;20538;-65
2022/10/18 05:32:43;;;;;;;31.05;11.75;;;;;;;6.86;64.50;96058.06;4178443;28;19921;-62
2022/10/18 05:34:44;;;;;;;26.70;17.42;;;;;;;7.10;63.59;96062.56;4189500;28;20048;-64
2022/10/18 05:36:48;;;;;;;23.40;13.20;;;;;;;7.34;62.38;96065.25;4185994;28;20124;-63
2022/10/18 05:38:51;;;;;;;27.35;13.75;;;;;;;7.57;62.03;96061.03;4185340;28;20076;-63
2022/10/18 05:40:53;;;;;;;20.20;13.43;;;;;;;7.73;61.87;96063.44;4191135;28;20053;-64
2022/10/18 05:42:54;;;;;;;22.55;11.77;;;;;;;7.89;61.12;96057.94;4190753;28;20132;-67
2022/10/18 05:44:56;;;;;;;33.83;13.95;;;;;;;8.01;60.57;96059.69;4194552;28;20163;-65
2022/10/18 05:46:58;;;;;;;27.35;13.82;;;;;;;8.16;60.80;96060.38;4193146;28;20044;-70
2022/10/18 05:48:59;;;;;;;31.63;13.55;;;;;;;8.36;60.54;96058.91;4194790;28;20692;-63
2022/10/18 05:51:01;;;;;;;22.75;11.88;;;;;;;8.50;59.84;96058.78;4189540;28;20080;-63
2022/10/18 05:53:03;;;;;;;21.77;11.82;;;;;;;8.63;59.45;96057.88;4180211;28;20041;-64
2022/10/18 05:55:13;;;;;;;22.17;11.60;;;;;;;8.73;58.54;96062.31;4178005;28;20052;-64
2022/10/18 05:57:14;;;;;;;23.48;14.70;;;;;;;8.78;58.05;96069.78;4188293;28;20112;-63
2022/10/18 05:59:16;;;;;;;25.80;14.57;;;;;;;8.81;58.44;96056.50;4193894;28;20136;-62
2022/10/18 06:01:18;;;;;;;24.23;13.05;;;;;;;8.92;58.39;96055.69;4176780;28;20095;-58
2022/10/18 06:03:20;;;;;;;22.45;12.93;;;;;;;9.01;58.75;96055.84;4186543;28;20044;-60
2022/10/18 06:05:21;;;;;;;31.15;12.45;;;;;;;9.18;58.01;96061.53;4184990;28;20052;-62
2022/10/18 06:07:23;;;;;;;22.08;11.30;;;;;;;9.28;57.55;96062.50;4180860;28;20129;-62
2022/10/18 06:09:25;;;;;;;18.70;11.63;;;;;;;9.39;57.90;96069.53;4181429;28;20076;-57
2022/10/18 06:11:26;;;;;;;20.40;10.73;;;;;;;9.43;57.73;96066.56;4182315;28;20088;-60
2022/10/18 06:13:28;;;;;;;16.90;10.43;;;;;;;9.49;57.07;96057.41;4182504;28;20077;-59
2022/10/18 06:15:32;;;;;;;16.48;10.40;;;;;;;9.58;57.61;96064.53;4180936;28;20119;-61
2022/10/18 06:17:34;;;;;;;25.45;11.48;;;;;;;9.71;57.13;96066.22;4184009;28;20102;-57
2022/10/18 06:19:36;;;;;;;25.58;10.48;;;;;;;9.76;56.81;96059.66;4188882;28;20113;-60
2022/10/18 06:21:38;;;;;;;20.35;9.93;;;;;;;9.80;57.08;96060.25;4186017;28;20136;-61
2022/10/18 06:23:40;;;;;;;19.92;9.90;;;;;;;9.85;56.72;96060.69;4194479;28;20056;-58
2022/10/18 06:25:41;;;;;;;20.13;8.80;;;;;;;9.95;56.11;96061.66;4184061;28;20060;-59
2022/10/18 06:27:43;;;;;;;21.55;9.75;;;;;;;10.00;55.59;96058.66;4190711;28;20135;-61
2022/10/18 06:29:44;;;;;;;22.38;10.02;;;;;;;10.01;56.06;96057.72;4180967;28;20476;-60
2022/10/18 06:31:46;;;;;;;23.98;10.05;;;;;;;10.00;55.92;96058.66;4180191;28;20053;-57
2022/10/18 06:33:48;;;;;;;27.33;10.55;;;;;;;10.03;55.49;96059.25;4182232;28;20155;-58
2022/10/18 06:35:58;;;;;;;20.00;10.45;;;;;;;10.11;55.85;96052.56;4181661;28;20608;-60
2022/10/18 06:37:59;;;;;;;19.08;10.10;;;;;;;10.12;56.11;96055.06;4181873;28;20137;-60
2022/10/18 06:40:01;;;;;;;18.63;10.13;;;;;;;10.16;55.40;96058.28;4183408;28;20144;-59
2022/10/18 06:42:03;;;;;;;17.17;9.70;;;;;;;10.12;55.43;96055.06;4179962;28;20464;-61
2022/10/18 06:44:13;;;;;;;19.60;10.73;;;;;;;10.16;55.51;96059.09;4196999;28;20404;-59
2022/10/18 06:46:15;;;;;;;24.17;10.80;;;;;;;10.04;55.88;96060.09;4195407;28;20044;-57
2022/10/18 06:48:17;;;;;;;17.67;10.43;;;;;;;9.93;56.27;96057.50;4190592;28;20083;-59
2022/10/18 06:50:24;;;;;;;19.30;10.45;;;;;;;9.92;56.03;96056.66;4188205;28;20428;-59
2022/10/18 06:52:25;;;;;;;16.73;10.65;;;;;;;10.07;56.35;96059.00;4180558;28;20557;-58
2022/10/18 06:54:27;;;;;;;19.30;11.00;;;;;;;10.21;56.08;96064.81;4191143;28;20144;-60
2022/10/18 06:56:29;;;;;;;16.30;11.50;;;;;;;10.27;55.91;96062.66;4195416;28;20056;-65
2022/10/18 06:58:32;;;;;;;17.95;10.82;;;;;;;10.27;54.93;96055.63;4189147;28;20087;-65
2022/10/18 07:00:34;;;;;;;19.60;11.20;;;;;;;10.25;55.70;96052.31;4183678;28;20486;-65
2022/10/18 07:02:40;;;;;;;14.70;10.70;;;;;;;10.31;55.18;96058.88;4180437;28;20049;-63
2022/10/18 07:04:41;;;;;;;17.95;11.43;;;;;;;10.34;55.15;96056.00;4189030;28;20105;-64
2022/10/18 07:06:43;;;;;;;23.58;16.80;;;;;;;10.05;55.83;96056.53;4193874;28;20152;-65
2022/10/18 07:08:46;;;;;;;31.92;16.85;;;;;;;9.95;55.90;96063.44;4191550;28;20120;-64
2022/10/18 07:10:52;;;;;;;26.05;17.73;;;;;;;10.01;56.01;96068.19;4192564;28;20592;-67
2022/10/18 07:12:53;;;;;;;29.80;18.98;;;;;;;10.08;55.77;96066.75;4182319;28;20448;-65
2022/10/18 07:15:16;;;;;;;31.25;17.17;;;;;;;10.31;55.88;96067.56;4190558;28;20056;-65
2022/10/18 07:17:18;;;;;;;31.92;20.45;;;;;;;10.46;54.92;96062.88;4188861;28;20094;-63
2022/10/18 07:19:20;;;;;;;31.15;19.67;;;;;;;10.13;55.67;96061.13;4185677;28;20060;-63
2022/10/18 07:21:24;;;;;;;30.85;18.17;;;;;;;10.19;55.35;96058.03;4188985;28;20057;-64
2022/10/18 07:23:25;;;;;;;;;;;;;;;9.95;55.83;96053.78;4182075;28;20051;-63
2022/10/18 07:25:27;;;;;;;34.58;19.30;;;;;;;10.04;55.81;96055.69;4186606;28;20445;-65
2022/10/18 07:27:35;;;;;;;37.95;19.25;;;;;;;10.17;55.44;96047.66;4188891;28;20127;-56
2022/10/18 07:29:38;;;;;;;27.58;17.55;;;;;;;10.38;55.42;96047.75;4193253;28;20136;-56
2022/10/18 07:31:40;;;;;;;28.70;18.20;;;;;;;10.50;54.65;96051.19;4182181;28;20063;-57
2022/10/18 07:33:44;;;;;;;38.50;18.88;;;;;;;10.55;54.52;96054.25;4192141;28;20102;-59
2022/10/18 07:35:46;;;;;;;32.75;19.80;;;;;;;10.63;53.91;96046.59;4191586;28;20080;-58
2022/10/18 07:37:48;;;;;;;25.75;16.73;;;;;;;10.70;54.07;96046.91;4181004;28;20143;-59
2022/10/18 07:39:50;;;;;;;29.55;16.55;;;;;;;10.86;53.70;96036.84;4193720;28;20079;-57
2022/10/18 07:41:51;;;;;;;29.25;17.30;;;;;;;10.89;53.43;96040.97;4183077;28;20107;-60
2022/10/18 07:43:53;;;;;;;28.65;16.92;;;;;;;10.82;53.44;96037.22;4195444;28;20080;-58
2022/10/18 07:45:57;;;;;;;27.83;17.10;;;;;;;10.95;53.35;96039.63;4186607;28;20072;-58
2022/10/18 07:47:58;;;;;;;29.88;16.58;;;;;;;10.80;53.32;96036.50;4183754;28;20040;-59
2022/10/18 07:50:00;;;;;;;28.77;16.70;;;;;;;10.61;54.05;96040.66;4184781;28;20053;-58
2022/10/18 07:52:02;;;;;;;26.20;17.15;;;;;;;10.52;54.70;96036.16;4184737;28;20060;-61
2022/10/18 07:54:03;;;;;;;27.42;17.13;;;;;;;10.70;53.95;96028.56;4187519;28;20049;-60
2022/10/18 07:56:15;;;;;;;28.88;17.52;;;;;;;10.93;53.61;96025.84;4180924;28;20045;-59
2022/10/18 07:58:17;;;;;;;25.95;16.25;;;;;;;10.88;52.63;96023.56;4183763;28;20041;-57
2022/10/18 08:00:18;;;;;;;32.65;18.10;;;;;;;10.79;53.77;96024.34;4182478;28;20072;-58
2022/10/18 08:02:21;;;;;;;31.02;17.60;;;;;;;10.59;54.01;96029.47;4185343;28;20048;-58
2022/10/18 08:04:23;;;;;;;27.42;16.88;;;;;;;10.78;53.39;96027.94;4185920;28;20048;-59
2022/10/18 08:06:24;;;;;;;23.95;16.55;;;;;;;10.95;53.12;96019.50;4189044;28;20087;-59
2022/10/18 08:08:26;;;;;;;29.08;16.52;;;;;;;11.23;53.11;96019.78;4183854;28;20049;-58
2022/10/18 08:10:28;;;;;;;37.03;18.08;;;;;;;11.04;52.81;96017.88;4179730;28;20156;-59
2022/10/18 08:12:30;;;;;;;29.70;17.67;;;;;;;11.17;52.78;96013.25;4183367;28;20486;-59
2022/10/18 08:14:31;;;;;;;24.17;16.48;;;;;;;11.14;52.49;96010.91;4183293;28;20059;-59
2022/10/18 08:16:33;;;;;;;26.58;16.83;;;;;;;11.23;52.68;96006.69;4181546;28;20049;-60
2022/10/18 08:18:35;;;;;;;28.65;17.10;;;;;;;11.42;52.16;95996.25;4183032;28;20123;-56
2022/10/18 08:20:42;;;;;;;31.13;17.25;;;;;;;11.53;51.64;95999.72;4181737;28;20542;-60
2022/10/18 08:22:44;;;;;;;30.20;17.05;;;;;;;11.61;51.80;96005.97;4179023;28;20513;-60
2022/10/18 08:24:45;;;;;;;31.95;17.10;;;;;;;11.77;51.89;95999.41;4180856;28;20124;-58
2022/10/18 08:26:48;;;;;;;26.25;17.10;;;;;;;12.00;51.76;95998.25;4181966;28;20629;-60
2022/10/18 08:28:50;;;;;;;26.38;16.30;;;;;;;12.25;50.41;95986.38;4180392;28;20076;-58
2022/10/18 08:31:16;;;;;;;25.20;16.60;;;;;;;12.53;50.25;95981.25;4188634;28;20427;-59
2022/10/18 08:33:18;;;;;;;25.15;17.30;;;;;;;12.80;50.02;95977.03;4191939;28;20171;-59
2022/10/18 08:35:19;;;;;;;29.90;17.08;;;;;;;13.07;49.14;95971.03;4183495;28;20516;-59
2022/10/18 08:37:21;;;;;;;25.33;16.23;;;;;;;13.06;48.46;95979.91;4192085;28;20481;-59
2022/10/18 08:39:22;;;;;;;26.27;16.67;;;;;;;13.01;48.36;95968.97;4184760;28;20057;-60
2022/10/18 08:41:36;;;;;;;29.85;16.10;;;;;;;13.05;48.20;95965.91;4189932;28;20056;-59
2022/10/18 08:43:42;;;;;;;26.60;16.15;;;;;;;13.09;48.20;95962.03;4189023;28;20083;-62
2022/10/18 08:45:44;;;;;;;25.33;16.60;;;;;;;13.18;48.27;95959.50;4176090;28;20045;-58
2022/10/18 08:47:48;;;;;;;21.10;15.00;;;;;;;13.36;49.15;95957.81;4179071;28;20080;-58
2022/10/18 08:49:56;;;;;;;32.63;17.88;;;;;;;13.62;48.47;95954.50;4177289;28;20057;-58
2022/10/18 08:51:58;;;;;;;27.02;17.98;;;;;;;13.88;48.16;95950.19;4176997;28;20124;-58
2022/10/18 08:54:11;;;;;;;29.58;16.60;;;;;;;14.13;47.82;95951.25;4185049;28;20206;-58
2022/10/18 08:56:20;;;;;;;27.48;15.18;;;;;;;14.34;46.86;95944.84;4183601;28;20414;-59
2022/10/18 08:58:29;;;;;;;30.73;16.02;;;;;;;14.24;45.64;95947.56;4191295;28;20049;-60
2022/10/18 09:00:34;;;;;;;25.63;15.25;;;;;;;14.02;46.05;95938.28;4175797;28;20144;-60
2022/10/18 09:02:49;;;;;;;26.55;14.55;;;;;;;13.90;46.13;95940.31;4170647;28;20074;-58
2022/10/18 09:04:54;;;;;;;24.48;15.63;;;;;;;13.90;46.45;95948.22;4191480;28;20138;-61
2022/10/18 09:07:24;;;;;;;29.92;14.95;;;;;;;13.54;47.03;95943.88;4193521;28;20087;-60
2022/10/18 09:09:38;;;;;;;22.15;14.55;;;;;;;13.71;47.06;95945.72;4194670;28;20055;-59
2022/10/18 09:11:49;;;;;;;24.48;14.02;;;;;;;14.04;46.21;95941.59;4182143;28;20052;-59
2022/10/18 09:13:53;;;;;;;30.40;16.17;;;;;;;14.32;46.35;95939.72;4190770;28;20132;-61
2022/10/18 09:16:00;;;;;;;19.45;14.05;;;;;;;14.63;45.71;95936.72;4188878;28;20083;-61
2022/10/18 09:18:25;;;;;;;23.90;14.77;;;;;;;14.92;45.41;95930.31;4191593;28;20067;-63
2022/10/18 09:20:27;;;;;;;;;;;;;;;14.93;44.61;95926.69;4184977;28;20140;-61
2022/10/18 09:22:41;;;;;;;27.17;15.27;;;;;;;15.16;44.61;95926.97;4223137;28;19966;-60
2022/10/18 09:24:59;;;;;;;21.83;15.27;;;;;;;15.35;44.10;95928.53;4184758;28;20083;-60
2022/10/18 09:27:04;;;;;;;25.65;15.05;;;;;;;15.46;43.31;95924.78;4190352;28;20283;-63
2022/10/18 09:29:12;;;;;;;27.63;15.82;;;;;;;15.56;43.33;95921.03;4177301;28;20358;-64
2022/10/18 09:31:44;;;;;;;25.40;15.90;;;;;;;15.43;42.77;95917.19;4179995;28;20119;-60
2022/10/18 09:33:52;;;;;;;27.58;16.80;;;;;;;15.29;43.14;95916.81;4191851;28;20127;-59
2022/10/18 09:35:58;;;;;;;25.88;15.70;;;;;;;15.01;43.19;95918.81;4190712;28;20053;-60
2022/10/18 09:38:04;;;;;;;22.17;15.10;;;;;;;14.88;43.88;95916.59;4191415;28;20565;-59
2022/10/18 09:40:17;;;;;;;26.48;15.15;;;;;;;14.92;43.71;95911.81;4191082;28;20175;-60
2022/10/18 09:42:28;;;;;;;28.38;14.40;;;;;;;14.81;43.60;95912.09;4193543;28;20106;-65
2022/10/18 09:44:37;;;;;;;23.67;13.55;;;;;;;14.86;43.87;95913.31;4185304;28;20047;-65